createdAt,value
2023-03-16T00:00:19.657Z,73.39
2023-03-16T00:03:07.532Z,73.20
2023-03-16T00:05:35.333Z,73.14
2023-03-16T00:08:03.168Z,73.06
2023-03-16T00:10:30.916Z,73.02
2023-03-16T00:12:58.608Z,73.34
2023-03-16T00:15:26.259Z,73.64
2023-03-16T00:17:54.965Z,73.61
2023-03-16T00:20:23.172Z,73.88
2023-03-16T00:22:51.440Z,73.74
2023-03-16T00:25:19.655Z,73.10
2023-03-16T00:27:47.567Z,73.38
2023-03-16T00:30:15.261Z,73.42
2023-03-16T00:32:43.138Z,73.50
2023-03-16T00:35:11.027Z,73.84
2023-03-16T00:37:39.808Z,73.90
2023-03-16T00:40:09.654Z,73.90
2023-03-16T00:42:37.530Z,74.27
2023-03-16T00:45:05.982Z,74.66
2023-03-16T00:47:34.022Z,74.56
2023-03-16T00:50:02.162Z,74.63
2023-03-16T00:52:30.315Z,74.23
2023-03-16T00:54:58.306Z,74.11
2023-03-16T00:57:27.745Z,74.11
2023-03-16T00:59:55.450Z,74.05
2023-03-16T01:02:26.074Z,74.30
2023-03-16T01:04:54.860Z,74.55
2023-03-16T01:07:23.001Z,74.72
2023-03-16T01:09:50.697Z,74.67
2023-03-16T01:12:35.904Z,74.70
2023-03-16T01:15:22.310Z,74.59
2023-03-16T01:17:49.986Z,74.64
2023-03-16T01:20:19.416Z,74.96
2023-03-16T01:22:47.419Z,75.58
2023-03-16T01:25:15.539Z,75.73
2023-03-16T01:27:43.168Z,75.87
2023-03-16T01:30:12.680Z,75.95
2023-03-16T01:32:40.465Z,76.21
2023-03-16T01:35:09.313Z,76.18
2023-03-16T01:37:36.897Z,75.94
2023-03-16T01:40:06.779Z,75.96
2023-03-16T01:42:45.011Z,75.92
2023-03-16T01:45:50.519Z,75.89
2023-03-16T01:48:19.768Z,75.75
2023-03-16T01:50:47.425Z,75.56
2023-03-16T01:53:15.030Z,75.21
2023-03-16T01:55:42.619Z,74.73
2023-03-16T01:58:11.143Z,74.65
2023-03-16T02:00:38.698Z,74.42
2023-03-16T02:03:08.275Z,73.96
2023-03-16T02:05:38.993Z,73.64
2023-03-16T02:08:06.675Z,73.72
2023-03-16T02:10:34.675Z,73.55
2023-03-16T02:13:03.659Z,73.30
2023-03-16T02:15:31.705Z,73.13
2023-03-16T02:18:00.353Z,73.18
2023-03-16T02:20:43.713Z,73.08
2023-03-16T02:23:18.557Z,72.87
2023-03-16T02:26:04.310Z,72.95
2023-03-16T02:28:38.993Z,72.82
2023-03-16T02:31:06.618Z,73.01
2023-03-16T02:33:35.017Z,73.05
2023-03-16T02:36:02.956Z,73.12
2023-03-16T02:38:31.707Z,72.92
2023-03-16T02:41:19.330Z,72.81
2023-03-16T02:43:48.987Z,72.75
2023-03-16T02:46:16.590Z,72.81
2023-03-16T02:49:25.317Z,72.62
2023-03-16T02:51:53.088Z,72.58
2023-03-16T02:54:20.690Z,72.58
2023-03-16T02:56:48.277Z,72.73
2023-03-16T02:59:16.137Z,72.74
2023-03-16T03:01:43.724Z,72.67
2023-03-16T03:04:11.452Z,72.26
2023-03-16T03:06:39.285Z,72.26
2023-03-16T03:09:07.397Z,72.40
2023-03-16T03:11:35.123Z,72.32
2023-03-16T03:14:03.966Z,72.41
2023-03-16T03:16:31.634Z,72.40
2023-03-16T03:18:59.442Z,72.65
2023-03-16T03:21:27.250Z,72.78
2023-03-16T03:23:54.852Z,72.97
2023-03-16T03:26:22.626Z,72.68
2023-03-16T03:28:50.195Z,72.45
2023-03-16T03:31:19.239Z,72.27
2023-03-16T03:33:46.873Z,72.08
2023-03-16T03:36:14.619Z,71.89
2023-03-16T03:38:42.223Z,72.82
2023-03-16T03:41:09.914Z,73.23
2023-03-16T03:43:37.499Z,74.49
2023-03-16T03:46:05.400Z,74.60
2023-03-16T03:48:33.849Z,75.11
2023-03-16T03:51:02.140Z,75.31
2023-03-16T03:53:29.744Z,75.96
2023-03-16T03:55:57.498Z,76.23
2023-03-16T03:58:25.132Z,76.29
2023-03-16T04:00:52.760Z,76.45
2023-03-16T04:03:20.658Z,75.83
2023-03-16T04:05:48.442Z,75.51
2023-03-16T04:08:16.017Z,74.89
2023-03-16T04:10:43.627Z,74.76
2023-03-16T04:13:11.216Z,74.27
2023-03-16T04:15:38.835Z,74.27
2023-03-16T04:18:06.461Z,74.43
2023-03-16T04:20:34.045Z,74.17
2023-03-16T04:23:01.723Z,73.85
2023-03-16T04:25:30.716Z,73.63
2023-03-16T04:27:58.507Z,73.85
2023-03-16T04:30:26.456Z,73.66
2023-03-16T04:32:54.325Z,73.81
2023-03-16T04:35:22.331Z,73.76
2023-03-16T04:37:49.980Z,73.56
2023-03-16T04:40:17.903Z,73.63
2023-03-16T04:42:45.938Z,73.65
2023-03-16T04:45:14.241Z,73.73
2023-03-16T04:47:41.932Z,73.88
2023-03-16T04:50:10.554Z,73.70
2023-03-16T04:52:38.792Z,73.06
2023-03-16T04:55:06.808Z,73.22
2023-03-16T04:57:35.205Z,73.17
2023-03-16T05:00:09.850Z,73.24
2023-03-16T05:02:37.862Z,73.23
2023-03-16T05:05:06.101Z,73.09
2023-03-16T05:07:33.707Z,72.70
2023-03-16T05:10:01.318Z,72.88
2023-03-16T05:12:29.050Z,72.84
2023-03-16T05:14:57.366Z,73.22
2023-03-16T05:17:25.095Z,73.10
2023-03-16T05:19:52.707Z,73.49
2023-03-16T05:22:20.306Z,73.98
2023-03-16T05:24:48.126Z,74.15
2023-03-16T05:27:15.784Z,74.14
2023-03-16T05:29:46.313Z,74.19
2023-03-16T05:32:14.114Z,73.99
2023-03-16T05:34:43.377Z,74.13
2023-03-16T05:37:11.152Z,73.64
2023-03-16T05:39:38.845Z,73.57
2023-03-16T05:42:06.704Z,73.43
2023-03-16T05:44:34.638Z,73.44
2023-03-16T05:47:02.432Z,73.59
2023-03-16T05:49:30.097Z,74.40
2023-03-16T05:51:57.687Z,75.96
2023-03-16T05:54:25.285Z,77.35
2023-03-16T05:56:52.919Z,78.40
2023-03-16T05:59:20.718Z,79.01
2023-03-16T06:01:50.202Z,79.89
2023-03-16T06:04:17.957Z,80.75
2023-03-16T06:06:45.717Z,81.00
2023-03-16T06:09:13.319Z,81.53
2023-03-16T06:11:40.978Z,81.77
2023-03-16T06:14:08.630Z,81.87
2023-03-16T06:16:36.315Z,82.21
2023-03-16T06:19:03.996Z,82.36
2023-03-16T06:21:31.653Z,82.85
2023-03-16T06:23:59.485Z,82.22
2023-03-16T06:26:27.316Z,82.11
2023-03-16T06:28:55.091Z,81.90
2023-03-16T06:31:22.977Z,81.74
2023-03-16T06:33:50.642Z,81.51
2023-03-16T06:36:18.428Z,81.57
2023-03-16T06:38:46.079Z,81.97
2023-03-16T06:41:14.447Z,81.91
2023-03-16T06:43:42.727Z,81.93
2023-03-16T06:46:11.295Z,81.66
2023-03-16T06:48:39.340Z,81.63
2023-03-16T06:51:07.974Z,81.76
2023-03-16T06:53:35.851Z,81.26
2023-03-16T06:56:03.718Z,81.08
2023-03-16T06:58:31.341Z,81.14
2023-03-16T07:01:02.295Z,81.07
2023-03-16T07:03:30.251Z,81.40
2023-03-16T07:06:16.496Z,81.33
2023-03-16T07:08:45.536Z,81.03
2023-03-16T07:11:20.902Z,81.22
2023-03-16T07:13:51.866Z,81.17
2023-03-16T07:16:22.174Z,81.28
2023-03-16T07:18:52.389Z,80.97
2023-03-16T07:21:21.688Z,80.94
2023-03-16T07:23:51.732Z,80.79
2023-03-16T07:26:19.794Z,80.83
2023-03-16T07:28:48.043Z,80.93
2023-03-16T07:31:16.660Z,80.68
2023-03-16T07:33:45.136Z,80.60
2023-03-16T07:36:13.813Z,80.73
2023-03-16T07:38:42.626Z,80.63
2023-03-16T07:41:14.147Z,80.29
2023-03-16T07:43:45.397Z,80.01
2023-03-16T07:46:13.923Z,80.23
2023-03-16T07:48:44.078Z,80.05
2023-03-16T07:51:13.710Z,80.02
2023-03-16T07:53:41.718Z,79.89
2023-03-16T07:56:10.573Z,79.48
2023-03-16T07:58:41.947Z,78.93
2023-03-16T08:01:11.797Z,78.34
2023-03-16T08:03:42.126Z,78.34
2023-03-16T08:06:12.181Z,78.08
2023-03-16T08:08:40.968Z,77.87
2023-03-16T08:11:09.004Z,78.17
2023-03-16T08:13:38.033Z,77.42
2023-03-16T08:16:10.501Z,77.47
2023-03-16T08:18:39.280Z,77.06
2023-03-16T08:21:08.663Z,76.68
2023-03-16T08:23:37.469Z,76.34
2023-03-16T08:26:09.348Z,75.66
2023-03-16T08:28:38.565Z,75.12
2023-03-16T08:31:07.677Z,75.16
2023-03-16T08:33:38.652Z,74.67
2023-03-16T08:36:08.629Z,74.52
2023-03-16T08:38:37.238Z,73.31
2023-03-16T08:41:08.476Z,73.82
2023-03-16T08:43:37.643Z,73.35
2023-03-16T08:46:06.753Z,73.07
2023-03-16T08:48:38.080Z,71.70
2023-03-16T08:51:06.385Z,71.02
2023-03-16T08:53:36.754Z,70.24
2023-03-16T08:56:06.390Z,69.41
2023-03-16T08:58:38.748Z,69.44
2023-03-16T09:01:09.186Z,69.40
2023-03-16T09:03:38.806Z,68.25
2023-03-16T09:06:09.761Z,68.00
2023-03-16T09:08:39.676Z,68.02
2023-03-16T09:11:11.084Z,67.02
2023-03-16T09:13:39.450Z,66.76
2023-03-16T09:16:12.141Z,66.63
2023-03-16T09:18:42.926Z,65.47
2023-03-16T09:21:13.945Z,65.54
2023-03-16T09:23:43.164Z,64.67
2023-03-16T09:26:12.574Z,64.66
2023-03-16T09:28:42.467Z,64.55
2023-03-16T09:31:15.871Z,63.85
2023-03-16T09:33:44.435Z,63.52
2023-03-16T09:36:13.757Z,62.92
2023-03-16T09:38:45.786Z,63.28
2023-03-16T09:41:35.473Z,63.04
2023-03-16T09:44:22.722Z,63.43
2023-03-16T09:46:51.772Z,63.86
2023-03-16T09:49:22.125Z,62.67
2023-03-16T09:51:53.169Z,60.94
2023-03-16T09:54:46.100Z,59.54
2023-03-16T09:57:47.368Z,59.60
2023-03-16T10:00:33.820Z,59.25
2023-03-16T10:03:14.986Z,57.95
2023-03-16T10:05:49.142Z,58.09
2023-03-16T10:08:24.953Z,58.07
2023-03-16T10:11:06.049Z,57.89
2023-03-16T10:13:47.711Z,56.84
2023-03-16T10:16:33.901Z,55.54
2023-03-16T10:19:28.496Z,55.47
2023-03-16T10:21:57.949Z,56.83
2023-03-16T10:24:54.408Z,56.79
2023-03-16T10:27:31.096Z,56.16
2023-03-16T10:30:01.720Z,56.09
2023-03-16T10:32:32.628Z,54.58
2023-03-16T10:35:07.146Z,51.16
2023-03-16T10:37:35.703Z,46.95
2023-03-16T10:40:09.368Z,47.40
2023-03-16T10:42:41.717Z,45.28
2023-03-16T10:45:23.031Z,44.92
2023-03-16T10:47:51.906Z,45.13
2023-03-16T10:50:25.510Z,47.09
2023-03-16T10:52:54.503Z,48.62
2023-03-16T10:55:24.690Z,49.79
2023-03-16T10:57:55.266Z,50.26
2023-03-16T11:00:27.040Z,50.25
2023-03-16T11:02:57.222Z,51.57
2023-03-16T11:05:28.995Z,51.75
2023-03-16T11:08:02.647Z,51.00
2023-03-16T11:10:46.074Z,49.38
2023-03-16T11:13:31.309Z,48.47
2023-03-16T11:16:14.017Z,46.47
2023-03-16T11:18:44.938Z,45.94
2023-03-16T11:21:17.278Z,46.37
2023-03-16T11:23:49.848Z,46.56
2023-03-16T11:26:31.369Z,43.40
2023-03-16T11:29:38.900Z,42.49
2023-03-16T11:32:20.548Z,42.73
2023-03-16T11:34:49.410Z,43.04
2023-03-16T11:37:43.844Z,42.68
2023-03-16T11:40:29.170Z,43.02
2023-03-16T11:43:06.448Z,43.43
2023-03-16T11:45:43.481Z,42.02
2023-03-16T11:48:36.656Z,42.27
2023-03-16T11:51:08.726Z,40.47
2023-03-16T11:53:50.942Z,41.32
2023-03-16T11:56:27.605Z,41.61
2023-03-16T11:58:58.747Z,40.80
2023-03-16T12:02:00.804Z,43.08
2023-03-16T12:04:41.353Z,45.08
2023-03-16T12:07:37.811Z,43.53
2023-03-16T12:10:13.965Z,42.51
2023-03-16T12:13:01.356Z,42.43
2023-03-16T12:15:33.368Z,41.64
2023-03-16T12:18:13.337Z,41.52
2023-03-16T12:20:54.501Z,40.24
2023-03-16T12:23:34.628Z,40.29
2023-03-16T12:26:04.230Z,40.52
2023-03-16T12:28:33.607Z,39.99
2023-03-16T12:31:15.562Z,40.35
2023-03-16T12:33:44.211Z,40.29
2023-03-16T12:36:35.666Z,39.09
2023-03-16T12:39:15.771Z,38.36
2023-03-16T12:41:50.457Z,38.02
2023-03-16T12:44:26.788Z,36.45
2023-03-16T12:47:15.400Z,35.37
2023-03-16T12:49:44.218Z,35.00
2023-03-16T12:52:15.900Z,34.27
2023-03-16T12:54:54.891Z,34.75
2023-03-16T12:57:27.207Z,36.23
2023-03-16T12:59:59.268Z,37.22
2023-03-16T13:02:34.972Z,37.40
2023-03-16T13:05:13.634Z,38.20
2023-03-16T13:07:52.355Z,38.60
2023-03-16T13:10:21.288Z,38.17
2023-03-16T13:12:51.687Z,38.39
2023-03-16T13:15:29.644Z,37.23
2023-03-16T13:18:10.017Z,34.03
2023-03-16T13:20:58.226Z,34.25
2023-03-16T13:23:56.075Z,34.22
2023-03-16T13:26:30.700Z,33.05
2023-03-16T13:28:59.176Z,33.95
2023-03-16T13:31:39.084Z,34.19
2023-03-16T13:34:11.845Z,32.97
2023-03-16T13:36:45.201Z,33.40
2023-03-16T13:39:41.851Z,34.40
2023-03-16T13:42:17.949Z,35.35
2023-03-16T13:44:49.079Z,34.21
2023-03-16T13:47:20.260Z,32.48
2023-03-16T13:49:53.885Z,30.37
2023-03-16T13:52:31.078Z,28.60
2023-03-16T13:55:01.198Z,28.94
2023-03-16T13:57:35.775Z,29.25
2023-03-16T14:00:27.718Z,29.54
2023-03-16T14:02:57.670Z,29.35
2023-03-16T14:05:30.894Z,29.16
2023-03-16T14:08:01.185Z,28.94
2023-03-16T14:10:34.368Z,29.11
2023-03-16T14:13:25.691Z,29.24
2023-03-16T14:15:54.737Z,29.88
2023-03-16T14:18:49.596Z,31.11
2023-03-16T14:21:22.170Z,31.73
2023-03-16T14:23:55.234Z,32.19
2023-03-16T14:26:23.723Z,32.21
2023-03-16T14:29:15.028Z,32.48
2023-03-16T14:31:42.738Z,32.56
2023-03-16T14:34:29.028Z,33.08
2023-03-16T14:37:07.795Z,33.11
2023-03-16T14:39:35.506Z,34.16
2023-03-16T14:42:05.009Z,34.75
2023-03-16T14:44:34.856Z,34.62
2023-03-16T14:47:04.283Z,34.71
2023-03-16T14:49:38.644Z,34.90
2023-03-16T14:52:09.370Z,34.27
2023-03-16T14:54:37.466Z,33.82
2023-03-16T14:57:08.315Z,33.26
2023-03-16T14:59:36.446Z,33.32
2023-03-16T15:02:06.934Z,32.86
2023-03-16T15:04:34.941Z,33.01
2023-03-16T15:07:08.848Z,33.12
2023-03-16T15:09:39.184Z,33.10
2023-03-16T15:12:17.994Z,32.60
2023-03-16T15:15:04.725Z,33.12
2023-03-16T15:17:33.083Z,32.86
2023-03-16T15:20:01.273Z,32.52
2023-03-16T15:22:33.521Z,32.66
2023-03-16T15:25:05.788Z,32.78
2023-03-16T15:27:35.800Z,32.72
2023-03-16T15:30:06.502Z,32.47
2023-03-16T15:32:34.233Z,32.41
2023-03-16T15:35:01.858Z,32.59
2023-03-16T15:37:32.615Z,31.82
2023-03-16T15:40:02.826Z,32.11
2023-03-16T15:42:30.929Z,31.41
2023-03-16T15:44:58.539Z,31.98
2023-03-16T15:47:26.664Z,31.83
2023-03-16T15:49:54.242Z,31.64
2023-03-16T15:52:26.786Z,31.93
2023-03-16T15:54:57.335Z,31.43
2023-03-16T15:57:25.437Z,31.30
2023-03-16T15:59:53.765Z,30.99
2023-03-16T16:02:31.297Z,31.72
2023-03-16T16:04:59.150Z,32.10
2023-03-16T16:07:27.377Z,32.38
2023-03-16T16:09:55.363Z,32.73
2023-03-16T16:12:32.554Z,32.17
2023-03-16T16:15:00.327Z,33.00
2023-03-16T16:17:43.912Z,33.66
2023-03-16T16:20:38.026Z,33.96
2023-03-16T16:23:05.712Z,34.10
2023-03-16T16:25:36.569Z,34.46
2023-03-16T16:28:12.831Z,34.12
2023-03-16T16:30:41.594Z,34.43
2023-03-16T16:33:28.509Z,35.03
2023-03-16T16:35:57.826Z,35.43
2023-03-16T16:38:25.501Z,35.85
2023-03-16T16:40:53.840Z,36.03
2023-03-16T16:43:48.057Z,36.93
2023-03-16T16:46:21.185Z,37.16
2023-03-16T16:48:59.918Z,37.42
2023-03-16T16:51:28.944Z,37.85
2023-03-16T16:53:57.787Z,38.37
2023-03-16T16:56:35.221Z,39.26
2023-03-16T16:59:13.492Z,39.94
2023-03-16T17:01:41.904Z,40.75
2023-03-16T17:04:15.094Z,41.07
2023-03-16T17:06:43.504Z,41.69
2023-03-16T17:09:14.228Z,42.02
2023-03-16T17:11:42.158Z,42.62
2023-03-16T17:14:23.915Z,42.99
2023-03-16T17:17:06.985Z,43.13
2023-03-16T17:19:34.714Z,43.75
2023-03-16T17:22:02.445Z,43.97
2023-03-16T17:24:31.420Z,44.20
2023-03-16T17:26:59.512Z,44.77
2023-03-16T17:29:31.733Z,45.49
2023-03-16T17:32:04.161Z,45.72
2023-03-16T17:34:32.729Z,46.01
2023-03-16T17:37:01.990Z,46.35
2023-03-16T17:39:56.264Z,46.78
2023-03-16T17:42:26.610Z,46.84
2023-03-16T17:44:54.508Z,47.31
2023-03-16T17:47:23.954Z,47.39
2023-03-16T17:49:51.898Z,47.75
2023-03-16T17:52:23.268Z,47.80
2023-03-16T17:54:52.274Z,48.50
2023-03-16T17:57:25.576Z,48.56
2023-03-16T17:59:53.298Z,48.85
2023-03-16T18:02:41.168Z,49.08
2023-03-16T18:05:17.464Z,49.51
2023-03-16T18:07:45.287Z,49.64
2023-03-16T18:10:24.785Z,50.14
2023-03-16T18:12:59.115Z,50.66
2023-03-16T18:15:29.410Z,50.72
2023-03-16T18:17:57.681Z,50.89
2023-03-16T18:20:35.612Z,51.44
2023-03-16T18:23:21.102Z,51.71
2023-03-16T18:25:50.900Z,51.89
2023-03-16T18:28:19.143Z,52.04
2023-03-16T18:30:48.217Z,52.47
2023-03-16T18:33:19.022Z,52.78
2023-03-16T18:35:46.667Z,53.10
2023-03-16T18:38:21.282Z,53.26
2023-03-16T18:40:49.470Z,53.71
2023-03-16T18:43:17.346Z,54.04
2023-03-16T18:45:46.013Z,54.19
2023-03-16T18:48:29.383Z,54.67
2023-03-16T18:50:57.662Z,54.78
2023-03-16T18:53:25.540Z,54.93
2023-03-16T18:55:55.627Z,55.06
2023-03-16T18:58:24.914Z,55.28
2023-03-16T19:00:55.042Z,55.47
2023-03-16T19:03:27.554Z,55.57
2023-03-16T19:05:56.392Z,56.01
2023-03-16T19:08:24.582Z,56.33
2023-03-16T19:10:53.979Z,56.13
2023-03-16T19:13:22.749Z,56.63
2023-03-16T19:15:52.118Z,56.90
2023-03-16T19:18:20.138Z,56.87
2023-03-16T19:20:50.150Z,57.00
2023-03-16T19:23:19.735Z,56.81
2023-03-16T19:25:47.639Z,57.32
2023-03-16T19:28:26.214Z,57.63
2023-03-16T19:30:54.962Z,58.17
2023-03-16T19:33:26.102Z,58.38
2023-03-16T19:35:54.909Z,58.54
2023-03-16T19:38:23.864Z,58.79
2023-03-16T19:40:59.160Z,58.74
2023-03-16T19:43:29.737Z,58.94
2023-03-16T19:45:57.589Z,59.14
2023-03-16T19:48:31.192Z,59.33
2023-03-16T19:50:59.094Z,59.32
2023-03-16T19:53:27.420Z,59.35
2023-03-16T19:55:55.419Z,59.41
2023-03-16T19:58:29.343Z,59.55
2023-03-16T20:00:58.154Z,59.50
2023-03-16T20:03:26.190Z,59.83
2023-03-16T20:05:53.863Z,59.81
2023-03-16T20:08:26.352Z,59.95
2023-03-16T20:11:05.841Z,60.36
2023-03-16T20:13:34.313Z,60.21
2023-03-16T20:16:03.352Z,60.45
2023-03-16T20:18:31.050Z,60.66
2023-03-16T20:20:58.673Z,60.83
2023-03-16T20:23:28.144Z,60.89
2023-03-16T20:26:02.160Z,61.21
2023-03-16T20:28:35.991Z,61.46
2023-03-16T20:31:08.042Z,61.68
2023-03-16T20:33:36.429Z,61.74
2023-03-16T20:36:04.494Z,62.07
2023-03-16T20:38:32.126Z,62.49
2023-03-16T20:40:59.877Z,62.57
2023-03-16T20:43:29.303Z,62.67
2023-03-16T20:45:59.155Z,62.89
2023-03-16T20:48:27.548Z,62.96
2023-03-16T20:50:56.037Z,62.93
2023-03-16T20:53:24.051Z,62.77
2023-03-16T20:55:51.755Z,62.74
2023-03-16T20:58:21.639Z,62.98
2023-03-16T21:00:50.625Z,63.21
2023-03-16T21:03:20.731Z,63.17
2023-03-16T21:05:52.025Z,63.15
2023-03-16T21:08:20.555Z,63.13
2023-03-16T21:10:49.164Z,63.05
2023-03-16T21:13:31.191Z,63.10
2023-03-16T21:16:01.709Z,63.26
2023-03-16T21:18:30.531Z,63.50
2023-03-16T21:20:58.933Z,63.81
2023-03-16T21:23:26.744Z,63.91
2023-03-16T21:26:00.565Z,64.05
2023-03-16T21:28:28.868Z,64.01
2023-03-16T21:30:57.567Z,64.10
2023-03-16T21:33:35.056Z,64.22
2023-03-16T21:36:04.421Z,64.03
2023-03-16T21:38:32.386Z,64.04
2023-03-16T21:41:00.862Z,64.04
2023-03-16T21:43:28.588Z,64.20
2023-03-16T21:45:57.093Z,63.97
2023-03-16T21:48:28.212Z,63.83
2023-03-16T21:50:55.870Z,63.81
2023-03-16T21:53:27.220Z,63.67
2023-03-16T21:55:55.971Z,63.99
2023-03-16T21:58:23.940Z,64.17
2023-03-16T22:00:52.295Z,64.31
2023-03-16T22:03:25.110Z,64.57
2023-03-16T22:05:53.975Z,64.86
2023-03-16T22:08:42.576Z,65.13
2023-03-16T22:11:18.107Z,65.12
2023-03-16T22:13:46.613Z,65.24
2023-03-16T22:16:16.081Z,65.45
2023-03-16T22:18:44.814Z,65.56
2023-03-16T22:21:31.467Z,65.58
2023-03-16T22:23:59.414Z,65.78
2023-03-16T22:26:27.741Z,66.29
2023-03-16T22:28:56.352Z,66.39
2023-03-16T22:31:38.727Z,66.51
2023-03-16T22:34:06.820Z,66.58
2023-03-16T22:36:34.517Z,66.67
2023-03-16T22:39:05.505Z,66.59
2023-03-16T22:41:33.242Z,67.14
2023-03-16T22:44:01.754Z,67.23
2023-03-16T22:46:29.654Z,67.07
2023-03-16T22:48:57.341Z,67.09
2023-03-16T22:51:27.676Z,66.85
2023-03-16T22:53:57.911Z,66.61
2023-03-16T22:56:26.409Z,66.68
2023-03-16T22:58:55.759Z,66.94
2023-03-16T23:01:41.242Z,66.87
2023-03-16T23:04:19.980Z,66.89
2023-03-16T23:06:52.803Z,66.79
2023-03-16T23:09:21.952Z,66.90
2023-03-16T23:11:54.100Z,66.60
2023-03-16T23:14:24.214Z,66.79
2023-03-16T23:16:52.751Z,66.88
2023-03-16T23:19:25.424Z,67.02
2023-03-16T23:21:54.792Z,67.22
2023-03-16T23:24:22.464Z,67.14
2023-03-16T23:26:50.670Z,67.44
2023-03-16T23:29:18.315Z,67.55
2023-03-16T23:31:46.686Z,67.43
2023-03-16T23:34:19.277Z,67.45
2023-03-16T23:36:47.294Z,67.66
2023-03-16T23:39:14.942Z,67.92
2023-03-16T23:41:44.500Z,67.78
2023-03-16T23:44:15.926Z,67.81
2023-03-16T23:46:44.557Z,68.09
2023-03-16T23:49:19.991Z,68.18
2023-03-16T23:51:47.662Z,68.03
2023-03-16T23:54:19.050Z,67.96
2023-03-16T23:56:47.169Z,67.83
2023-03-16T23:59:14.920Z,67.68
